createdAt,value
2017-07-30T00:00:50.759Z,94.87
2017-07-30T00:03:18.608Z,94.66
2017-07-30T00:05:46.394Z,94.51
2017-07-30T00:08:14.240Z,94.14
2017-07-30T00:10:42.048Z,93.83
2017-07-30T00:13:09.871Z,93.48
2017-07-30T00:15:37.643Z,93.24
2017-07-30T00:18:05.440Z,92.99
2017-07-30T00:20:33.264Z,92.62
2017-07-30T00:23:01.052Z,92.23
2017-07-30T00:25:28.888Z,92.04
2017-07-30T00:27:56.660Z,92.08
2017-07-30T00:30:24.502Z,91.69
2017-07-30T00:32:52.280Z,91.66
2017-07-30T00:35:20.115Z,91.58
2017-07-30T00:37:47.945Z,91.51
2017-07-30T00:40:15.766Z,91.31
2017-07-30T00:42:43.556Z,91.16
2017-07-30T00:45:11.398Z,91.11
2017-07-30T00:47:39.189Z,90.94
2017-07-30T00:50:06.989Z,90.96
2017-07-30T00:52:34.815Z,90.81
2017-07-30T00:55:02.625Z,90.88
2017-07-30T00:57:30.445Z,90.90
2017-07-30T00:59:58.232Z,90.99
2017-07-30T01:02:26.049Z,91.23
2017-07-30T01:04:53.828Z,91.56
2017-07-30T01:07:21.666Z,91.70
2017-07-30T01:09:49.443Z,91.78
2017-07-30T01:12:17.286Z,91.88
2017-07-30T01:14:45.112Z,91.89
2017-07-30T01:17:12.914Z,91.84
2017-07-30T01:19:40.737Z,91.93
2017-07-30T01:22:08.517Z,91.96
2017-07-30T01:24:36.429Z,92.07
2017-07-30T01:27:04.225Z,92.10
2017-07-30T01:29:32.062Z,92.21
2017-07-30T01:31:59.868Z,92.02
2017-07-30T01:34:27.727Z,92.05
2017-07-30T01:36:55.548Z,92.14
2017-07-30T01:39:23.404Z,92.11
2017-07-30T01:41:51.202Z,92.25
2017-07-30T01:44:18.995Z,92.28
2017-07-30T01:46:46.832Z,92.14
2017-07-30T01:49:14.620Z,92.08
2017-07-30T01:51:42.458Z,92.04
2017-07-30T01:54:10.279Z,92.01
2017-07-30T01:56:38.129Z,92.01
2017-07-30T01:59:05.933Z,91.90
2017-07-30T02:01:33.774Z,91.80
2017-07-30T02:04:01.536Z,91.88
2017-07-30T02:06:29.357Z,91.79
2017-07-30T02:08:57.157Z,91.75
2017-07-30T02:11:24.947Z,91.59
2017-07-30T02:13:52.770Z,91.51
2017-07-30T02:16:20.544Z,91.43
2017-07-30T02:18:48.382Z,91.46
2017-07-30T02:21:16.193Z,91.38
2017-07-30T02:23:44.148Z,91.13
2017-07-30T02:26:11.927Z,91.11
2017-07-30T02:28:39.764Z,91.06
2017-07-30T02:31:07.533Z,90.99
2017-07-30T02:33:35.357Z,90.75
2017-07-30T02:36:03.192Z,90.76
2017-07-30T02:38:30.985Z,90.83
2017-07-30T02:40:58.805Z,90.87
2017-07-30T02:43:26.593Z,90.84
2017-07-30T02:45:54.446Z,90.80
2017-07-30T02:48:22.224Z,90.94
2017-07-30T02:50:50.061Z,91.24
2017-07-30T02:53:17.858Z,91.38
2017-07-30T02:55:45.668Z,91.60
2017-07-30T02:58:13.449Z,91.64
2017-07-30T03:00:41.327Z,91.85
2017-07-30T03:03:09.104Z,91.91
2017-07-30T03:05:36.876Z,91.84
2017-07-30T03:08:04.716Z,91.82
2017-07-30T03:10:32.510Z,91.83
2017-07-30T03:13:00.328Z,91.86
2017-07-30T03:15:28.116Z,91.90
2017-07-30T03:17:55.946Z,91.89
2017-07-30T03:20:23.732Z,91.86
2017-07-30T03:22:51.541Z,91.88
2017-07-30T03:25:19.315Z,91.93
2017-07-30T03:27:47.168Z,91.95
2017-07-30T03:30:14.947Z,92.19
2017-07-30T03:32:42.767Z,92.33
2017-07-30T03:35:11.777Z,92.46
2017-07-30T03:37:39.652Z,92.49
2017-07-30T03:40:07.449Z,92.45
2017-07-30T03:42:35.283Z,92.37
2017-07-30T03:45:03.069Z,92.40
2017-07-30T03:47:30.925Z,92.41
2017-07-30T03:49:58.715Z,92.39
2017-07-30T03:52:26.518Z,92.53
2017-07-30T03:54:54.314Z,92.60
2017-07-30T03:57:22.143Z,92.49
2017-07-30T03:59:49.912Z,92.41
2017-07-30T04:02:17.774Z,92.39
2017-07-30T04:04:45.551Z,92.50
2017-07-30T04:07:13.340Z,92.51
2017-07-30T04:09:41.144Z,92.49
2017-07-30T04:12:08.920Z,92.52
2017-07-30T04:14:36.749Z,92.47
2017-07-30T04:17:04.562Z,92.27
2017-07-30T04:19:32.387Z,92.00
2017-07-30T04:22:00.169Z,91.84
2017-07-30T04:24:28.032Z,91.67
2017-07-30T04:26:55.832Z,91.63
2017-07-30T04:29:23.648Z,91.50
2017-07-30T04:31:51.433Z,91.37
2017-07-30T04:34:19.251Z,91.12
2017-07-30T04:36:47.065Z,90.94
2017-07-30T04:39:14.944Z,90.76
2017-07-30T04:41:42.727Z,90.68
2017-07-30T04:44:10.568Z,90.62
2017-07-30T04:46:38.343Z,90.59
2017-07-30T04:49:06.157Z,90.46
2017-07-30T04:51:33.955Z,90.22
2017-07-30T04:54:01.691Z,89.84
2017-07-30T04:56:29.460Z,89.35
2017-07-30T04:58:57.286Z,88.94
2017-07-30T05:01:25.087Z,88.66
2017-07-30T05:03:52.866Z,88.00
2017-07-30T05:06:20.706Z,87.68
2017-07-30T05:08:48.499Z,87.08
2017-07-30T05:11:16.358Z,86.93
2017-07-30T05:13:44.130Z,86.80
2017-07-30T05:16:12.022Z,86.34
2017-07-30T05:18:39.823Z,86.25
2017-07-30T05:21:07.678Z,86.22
2017-07-30T05:23:35.491Z,85.06
2017-07-30T05:26:03.358Z,82.98
2017-07-30T05:28:31.170Z,80.51
2017-07-30T05:30:59.002Z,79.66
2017-07-30T05:33:26.793Z,80.07
2017-07-30T05:35:54.730Z,81.03
2017-07-30T05:38:22.520Z,82.18
2017-07-30T05:40:50.337Z,82.62
2017-07-30T05:43:18.145Z,83.14
2017-07-30T05:45:45.997Z,83.53
2017-07-30T05:48:13.783Z,84.17
2017-07-30T05:50:41.634Z,84.35
2017-07-30T05:53:09.435Z,84.66
2017-07-30T05:55:37.314Z,84.78
2017-07-30T05:58:05.108Z,84.27
2017-07-30T06:00:33.006Z,84.22
2017-07-30T06:03:00.819Z,84.48
2017-07-30T06:05:28.657Z,84.15
2017-07-30T06:07:56.525Z,84.52
2017-07-30T06:10:24.296Z,84.36
2017-07-30T06:12:52.132Z,84.10
2017-07-30T06:15:19.969Z,84.42
2017-07-30T06:17:47.807Z,84.67
2017-07-30T06:20:15.616Z,84.91
2017-07-30T06:22:43.449Z,84.96
2017-07-30T06:25:11.231Z,85.00
2017-07-30T06:27:39.094Z,84.99
2017-07-30T06:30:06.893Z,84.77
2017-07-30T06:32:34.719Z,84.78
2017-07-30T06:35:02.516Z,84.93
2017-07-30T06:37:30.409Z,84.72
2017-07-30T06:39:58.200Z,85.07
2017-07-30T06:42:26.008Z,85.31
2017-07-30T06:44:53.778Z,85.48
2017-07-30T06:47:21.611Z,85.68
2017-07-30T06:49:49.387Z,85.80
2017-07-30T06:52:18.036Z,85.40
2017-07-30T06:54:45.827Z,84.87
2017-07-30T06:57:13.672Z,84.70
2017-07-30T06:59:41.483Z,84.49
2017-07-30T07:02:09.339Z,84.45
2017-07-30T07:04:37.107Z,84.99
2017-07-30T07:07:04.895Z,85.49
2017-07-30T07:09:32.735Z,85.75
2017-07-30T07:12:00.550Z,86.29
2017-07-30T07:14:28.413Z,87.04
2017-07-30T07:16:56.201Z,87.35
2017-07-30T07:19:24.049Z,87.70
2017-07-30T07:21:51.836Z,87.56
2017-07-30T07:24:19.694Z,87.10
2017-07-30T07:26:47.495Z,86.54
2017-07-30T07:29:15.354Z,86.25
2017-07-30T07:31:43.151Z,85.51
2017-07-30T07:34:11.114Z,84.69
2017-07-30T07:36:38.945Z,85.09
2017-07-30T07:39:06.788Z,84.70
2017-07-30T07:41:34.581Z,84.34
2017-07-30T07:44:02.403Z,84.46
2017-07-30T07:46:30.337Z,84.10
2017-07-30T07:48:58.168Z,83.97
2017-07-30T07:51:25.941Z,84.12
2017-07-30T07:53:53.702Z,83.39
2017-07-30T07:56:21.476Z,82.92
2017-07-30T07:58:49.304Z,82.58
2017-07-30T08:01:17.097Z,82.23
2017-07-30T08:03:44.891Z,82.08
2017-07-30T08:06:12.708Z,81.26
2017-07-30T08:08:40.488Z,82.00
2017-07-30T08:11:08.314Z,82.80
2017-07-30T08:13:36.114Z,83.30
2017-07-30T08:16:03.947Z,84.25
2017-07-30T08:18:31.733Z,84.33
2017-07-30T08:20:59.584Z,84.63
2017-07-30T08:23:27.380Z,85.22
2017-07-30T08:25:55.226Z,85.24
2017-07-30T08:28:23.023Z,85.62
2017-07-30T08:30:50.880Z,86.06
2017-07-30T08:33:18.673Z,86.08
2017-07-30T08:35:46.546Z,85.87
2017-07-30T08:38:14.380Z,85.67
2017-07-30T08:40:42.237Z,85.85
2017-07-30T08:43:10.024Z,86.52
2017-07-30T08:45:37.864Z,86.97
2017-07-30T08:48:05.887Z,87.04
2017-07-30T08:50:33.739Z,86.89
2017-07-30T08:53:01.536Z,87.23
2017-07-30T08:55:29.369Z,87.40
2017-07-30T08:57:57.175Z,87.43
2017-07-30T09:00:25.010Z,87.75
2017-07-30T09:02:52.850Z,87.79
2017-07-30T09:05:20.631Z,87.72
2017-07-30T09:07:48.488Z,86.69
2017-07-30T09:10:16.277Z,85.26
2017-07-30T09:12:44.089Z,84.07
2017-07-30T09:15:11.922Z,84.14
2017-07-30T09:17:39.777Z,84.27
2017-07-30T09:20:07.585Z,83.56
2017-07-30T09:22:35.445Z,81.77
2017-07-30T09:25:03.233Z,79.75
2017-07-30T09:27:31.077Z,79.61
2017-07-30T09:29:58.870Z,79.05
2017-07-30T09:32:26.716Z,78.13
2017-07-30T09:34:54.512Z,76.88
2017-07-30T09:37:22.390Z,77.65
2017-07-30T09:39:50.254Z,77.66
2017-07-30T09:42:18.089Z,78.19
2017-07-30T09:44:45.911Z,76.41
2017-07-30T09:47:13.793Z,76.23
2017-07-30T09:49:41.585Z,76.56
2017-07-30T09:52:09.439Z,77.68
2017-07-30T09:54:37.217Z,76.88
2017-07-30T09:57:05.055Z,75.68
2017-07-30T09:59:32.894Z,76.30
2017-07-30T10:02:00.718Z,75.34
2017-07-30T10:04:28.570Z,74.63
2017-07-30T10:06:56.419Z,73.80
2017-07-30T10:09:24.263Z,71.83
2017-07-30T10:11:52.044Z,72.17
2017-07-30T10:14:19.919Z,72.30
2017-07-30T10:16:47.732Z,72.31
2017-07-30T10:19:15.582Z,69.79
2017-07-30T10:21:43.376Z,70.20
2017-07-30T10:24:11.228Z,72.40
2017-07-30T10:26:39.005Z,69.56
2017-07-30T10:29:06.834Z,69.22
2017-07-30T10:31:34.651Z,68.57
2017-07-30T10:34:02.519Z,68.64
2017-07-30T10:36:30.364Z,67.04
2017-07-30T10:38:58.175Z,67.62
2017-07-30T10:41:26.065Z,65.13
2017-07-30T10:43:53.875Z,67.56
2017-07-30T10:46:21.731Z,67.27
2017-07-30T10:48:49.546Z,68.04
2017-07-30T10:51:17.453Z,67.78
2017-07-30T10:53:45.251Z,67.54
2017-07-30T10:56:13.117Z,67.31
2017-07-30T10:58:40.914Z,67.18
2017-07-30T11:01:08.737Z,66.88
2017-07-30T11:03:37.167Z,65.27
2017-07-30T11:06:05.011Z,65.27
2017-07-30T11:08:33.368Z,64.82
2017-07-30T11:11:01.208Z,66.46
2017-07-30T11:13:29.011Z,65.75
2017-07-30T11:15:56.847Z,65.82
2017-07-30T11:18:24.681Z,65.77
2017-07-30T11:20:52.539Z,66.02
2017-07-30T11:23:20.328Z,65.85
2017-07-30T11:25:48.152Z,65.79
2017-07-30T11:28:15.997Z,64.97
2017-07-30T11:30:43.786Z,64.99
2017-07-30T11:33:11.645Z,61.24
2017-07-30T11:35:39.480Z,61.85
2017-07-30T11:38:07.421Z,61.87
2017-07-30T11:40:35.228Z,60.15
2017-07-30T11:43:03.064Z,60.02
2017-07-30T11:45:30.854Z,59.97
2017-07-30T11:47:58.673Z,58.88
2017-07-30T11:50:26.446Z,58.81
2017-07-30T11:52:54.317Z,57.42
2017-07-30T11:55:22.133Z,57.99
2017-07-30T11:57:49.977Z,57.04
2017-07-30T12:00:17.763Z,59.18
2017-07-30T12:02:45.630Z,58.10
2017-07-30T12:05:13.470Z,56.25
2017-07-30T12:07:41.272Z,55.26
2017-07-30T12:10:09.134Z,56.32
2017-07-30T12:12:36.923Z,56.78
2017-07-30T12:15:04.792Z,57.20
2017-07-30T12:17:32.576Z,56.55
2017-07-30T12:20:00.398Z,56.67
2017-07-30T12:22:28.196Z,55.61
2017-07-30T12:24:56.065Z,55.61
2017-07-30T12:27:23.864Z,57.45
2017-07-30T12:29:51.711Z,53.35
2017-07-30T12:32:19.564Z,53.64
2017-07-30T12:34:47.331Z,52.44
2017-07-30T12:37:15.216Z,54.49
2017-07-30T12:39:43.013Z,51.09
2017-07-30T12:42:10.836Z,51.72
2017-07-30T12:44:38.626Z,52.42
2017-07-30T12:47:06.470Z,51.75
2017-07-30T12:49:34.248Z,50.78
2017-07-30T12:52:02.088Z,50.86
2017-07-30T12:54:29.889Z,53.28
2017-07-30T12:56:57.761Z,52.69
2017-07-30T12:59:25.593Z,54.17
2017-07-30T13:01:53.405Z,53.88
2017-07-30T13:04:21.213Z,53.48
2017-07-30T13:06:49.009Z,53.67
2017-07-30T13:09:16.865Z,55.09
2017-07-30T13:11:44.644Z,54.69
2017-07-30T13:14:12.477Z,52.94
2017-07-30T13:16:40.270Z,53.10
2017-07-30T13:19:08.087Z,52.23
2017-07-30T13:21:35.882Z,51.47
2017-07-30T13:24:03.742Z,50.60
2017-07-30T13:26:31.567Z,52.24
2017-07-30T13:28:59.364Z,53.25
2017-07-30T13:31:27.188Z,52.48
2017-07-30T13:33:54.982Z,53.02
2017-07-30T13:36:22.845Z,52.29
2017-07-30T13:38:50.644Z,53.08
2017-07-30T13:41:18.504Z,53.04
2017-07-30T13:43:46.320Z,52.03
2017-07-30T13:46:14.233Z,52.90
2017-07-30T13:48:42.033Z,54.27
2017-07-30T13:51:09.870Z,52.03
2017-07-30T13:53:37.664Z,53.22
2017-07-30T13:56:05.537Z,53.04
2017-07-30T13:58:33.335Z,52.45
2017-07-30T14:01:01.136Z,51.62
2017-07-30T14:03:28.985Z,50.86
2017-07-30T14:05:56.788Z,51.76
2017-07-30T14:08:24.656Z,52.32
2017-07-30T14:10:52.488Z,52.57
2017-07-30T14:13:20.332Z,52.12
2017-07-30T14:15:48.156Z,54.28
2017-07-30T14:18:15.988Z,52.69
2017-07-30T14:20:43.841Z,52.35
2017-07-30T14:23:11.699Z,50.20
2017-07-30T14:25:39.492Z,50.81
2017-07-30T14:28:07.264Z,51.41
2017-07-30T14:30:35.269Z,50.37
2017-07-30T14:33:03.074Z,50.12
2017-07-30T14:35:30.893Z,49.69
2017-07-30T14:37:58.716Z,49.05
2017-07-30T14:40:26.571Z,49.52
2017-07-30T14:42:54.389Z,48.72
2017-07-30T14:45:22.209Z,48.15
2017-07-30T14:47:49.979Z,46.58
2017-07-30T14:50:17.844Z,49.53
2017-07-30T14:52:45.619Z,49.30
2017-07-30T14:55:13.425Z,49.45
2017-07-30T14:57:41.268Z,49.07
2017-07-30T15:00:09.093Z,49.58
2017-07-30T15:02:36.958Z,49.52
2017-07-30T15:05:04.746Z,50.67
2017-07-30T15:07:32.598Z,50.48
2017-07-30T15:10:00.393Z,48.88
2017-07-30T15:12:28.235Z,49.29
2017-07-30T15:14:56.040Z,49.29
2017-07-30T15:17:23.924Z,50.02
2017-07-30T15:19:51.706Z,51.31
2017-07-30T15:22:19.488Z,50.34
2017-07-30T15:24:47.345Z,49.96
2017-07-30T15:27:15.128Z,51.33
2017-07-30T15:29:43.017Z,51.16
2017-07-30T15:32:10.861Z,52.37
2017-07-30T15:34:38.702Z,52.54
2017-07-30T15:37:06.589Z,53.20
2017-07-30T15:39:34.476Z,52.39
2017-07-30T15:42:02.278Z,52.44
2017-07-30T15:44:30.134Z,53.29
2017-07-30T15:46:58.292Z,53.87
2017-07-30T15:49:26.119Z,52.73
2017-07-30T15:51:54.003Z,53.19
2017-07-30T15:54:21.822Z,51.62
2017-07-30T15:56:49.679Z,53.04
2017-07-30T15:59:17.498Z,54.66
2017-07-30T16:01:45.317Z,53.04
2017-07-30T16:04:13.141Z,53.18
2017-07-30T16:06:41.020Z,52.23
2017-07-30T16:09:09.928Z,53.24
2017-07-30T16:11:37.797Z,53.01
2017-07-30T16:14:05.597Z,52.80
2017-07-30T16:16:33.325Z,52.17
2017-07-30T16:19:01.195Z,54.39
2017-07-30T16:21:28.922Z,53.98
2017-07-30T16:23:56.765Z,53.67
2017-07-30T16:26:24.580Z,54.30
2017-07-30T16:28:52.341Z,53.62
2017-07-30T16:31:23.135Z,53.36
2017-07-30T16:33:51.191Z,55.07
2017-07-30T16:36:18.892Z,53.42
2017-07-30T16:38:46.671Z,53.11
2017-07-30T16:41:14.367Z,50.85
2017-07-30T16:43:42.089Z,52.05
2017-07-30T16:46:09.920Z,49.26
2017-07-30T16:48:38.640Z,48.33
2017-07-30T16:51:06.490Z,48.96
2017-07-30T16:53:34.272Z,50.22
2017-07-30T16:56:02.134Z,50.77
2017-07-30T16:58:29.916Z,49.67
2017-07-30T17:00:57.761Z,49.83
2017-07-30T17:03:25.593Z,50.99
2017-07-30T17:05:53.436Z,50.77
2017-07-30T17:08:21.247Z,50.73
2017-07-30T17:10:49.052Z,51.72
2017-07-30T17:13:16.889Z,52.25
2017-07-30T17:15:44.704Z,52.41
2017-07-30T17:18:12.559Z,49.89
2017-07-30T17:20:40.331Z,50.94
2017-07-30T17:23:08.169Z,50.36
2017-07-30T17:25:35.976Z,48.91
2017-07-30T17:28:03.801Z,49.88
2017-07-30T17:30:31.585Z,48.00
2017-07-30T17:32:59.424Z,48.58
2017-07-30T17:35:27.269Z,46.49
2017-07-30T17:37:55.204Z,45.73
2017-07-30T17:40:23.032Z,45.63
2017-07-30T17:42:50.814Z,46.90
2017-07-30T17:45:18.674Z,44.79
2017-07-30T17:47:46.472Z,43.82
2017-07-30T17:50:14.344Z,44.15
2017-07-30T17:52:42.177Z,44.33
2017-07-30T17:55:10.046Z,44.69
2017-07-30T17:57:37.833Z,44.20
2017-07-30T18:00:05.695Z,42.47
2017-07-30T18:02:33.531Z,41.19
2017-07-30T18:05:01.330Z,40.54
2017-07-30T18:07:29.174Z,39.93
2017-07-30T18:09:56.968Z,40.52
2017-07-30T18:12:24.799Z,43.19
2017-07-30T18:14:52.592Z,45.47
2017-07-30T18:17:20.437Z,50.98
2017-07-30T18:19:48.238Z,54.76
2017-07-30T18:22:16.103Z,55.74
2017-07-30T18:24:43.899Z,55.24
2017-07-30T18:27:11.760Z,55.44
2017-07-30T18:29:39.542Z,55.34
2017-07-30T18:32:07.357Z,55.44
2017-07-30T18:34:35.218Z,56.05
2017-07-30T18:37:03.056Z,56.76
2017-07-30T18:39:30.903Z,57.08
2017-07-30T18:41:58.743Z,57.31
2017-07-30T18:44:26.672Z,57.95
2017-07-30T18:46:54.481Z,59.23
2017-07-30T18:49:22.367Z,60.34
2017-07-30T18:51:50.171Z,62.19
2017-07-30T18:54:17.955Z,62.33
2017-07-30T18:56:45.799Z,62.80
2017-07-30T18:59:13.581Z,63.56
2017-07-30T19:01:41.447Z,64.31
2017-07-30T19:04:09.294Z,64.30
2017-07-30T19:06:37.152Z,65.34
2017-07-30T19:09:05.015Z,66.18
2017-07-30T19:11:32.869Z,67.04
2017-07-30T19:14:00.717Z,67.77
2017-07-30T19:16:28.587Z,68.73
2017-07-30T19:18:56.415Z,69.74
2017-07-30T19:21:24.252Z,70.66
2017-07-30T19:23:51.996Z,71.18
2017-07-30T19:26:19.803Z,72.21
2017-07-30T19:28:47.704Z,72.89
2017-07-30T19:31:15.525Z,73.27
2017-07-30T19:33:43.425Z,73.28
2017-07-30T19:36:11.301Z,73.61
2017-07-30T19:38:39.174Z,74.02
2017-07-30T19:41:06.971Z,73.98
2017-07-30T19:43:34.867Z,74.00
2017-07-30T19:46:02.666Z,73.85
2017-07-30T19:48:30.503Z,74.11
2017-07-30T19:50:58.343Z,74.36
2017-07-30T19:53:26.171Z,74.55
2017-07-30T19:55:54.006Z,74.65
2017-07-30T19:58:21.824Z,74.99
2017-07-30T20:00:49.655Z,75.69
2017-07-30T20:03:17.446Z,75.83
2017-07-30T20:05:45.278Z,76.03
2017-07-30T20:08:13.060Z,76.58
2017-07-30T20:10:40.911Z,76.55
2017-07-30T20:13:08.696Z,77.29
2017-07-30T20:15:36.510Z,78.36
2017-07-30T20:18:04.367Z,78.13
2017-07-30T20:20:32.669Z,77.55
2017-07-30T20:23:00.731Z,77.64
2017-07-30T20:25:28.539Z,77.81
2017-07-30T20:27:56.411Z,77.57
2017-07-30T20:30:24.212Z,77.53
2017-07-30T20:32:52.060Z,77.68
2017-07-30T20:35:19.886Z,77.97
2017-07-30T20:37:47.907Z,78.13
2017-07-30T20:40:15.736Z,78.31
2017-07-30T20:42:43.544Z,78.38
2017-07-30T20:45:11.391Z,78.40
2017-07-30T20:47:39.207Z,78.67
2017-07-30T20:50:07.060Z,78.57
2017-07-30T20:52:34.863Z,79.15
2017-07-30T20:55:02.727Z,80.26
2017-07-30T20:57:30.518Z,80.77
2017-07-30T20:59:58.348Z,81.35
2017-07-30T21:02:26.137Z,82.42
2017-07-30T21:04:54.021Z,82.82
2017-07-30T21:07:21.817Z,81.94
2017-07-30T21:09:49.598Z,81.50
2017-07-30T21:12:17.465Z,80.63
2017-07-30T21:14:45.265Z,80.19
2017-07-30T21:17:13.121Z,80.82
2017-07-30T21:19:40.912Z,81.25
2017-07-30T21:22:08.764Z,81.74
2017-07-30T21:24:36.591Z,82.35
2017-07-30T21:27:04.436Z,82.97
2017-07-30T21:29:32.243Z,82.90
2017-07-30T21:32:00.073Z,82.91
2017-07-30T21:34:27.856Z,82.97
2017-07-30T21:36:55.682Z,83.24
2017-07-30T21:39:23.515Z,83.31
2017-07-30T21:41:51.300Z,83.28
2017-07-30T21:44:19.218Z,83.23
2017-07-30T21:46:47.021Z,83.26
2017-07-30T21:49:14.854Z,83.33
2017-07-30T21:51:42.655Z,83.78
2017-07-30T21:54:10.480Z,83.97
2017-07-30T21:56:38.281Z,84.07
2017-07-30T21:59:06.187Z,84.01
2017-07-30T22:01:33.980Z,84.17
2017-07-30T22:04:01.818Z,85.00
2017-07-30T22:06:29.631Z,85.54
2017-07-30T22:08:57.421Z,85.76
2017-07-30T22:11:25.258Z,85.86
2017-07-30T22:13:53.047Z,85.95
2017-07-30T22:16:20.895Z,86.33
2017-07-30T22:18:48.686Z,86.59
2017-07-30T22:21:16.504Z,86.45
2017-07-30T22:23:44.280Z,86.69
2017-07-30T22:26:12.162Z,86.79
2017-07-30T22:28:39.941Z,86.73
2017-07-30T22:31:07.760Z,86.84
2017-07-30T22:33:35.601Z,87.22
2017-07-30T22:36:03.388Z,86.66
2017-07-30T22:38:31.318Z,86.61
2017-07-30T22:40:59.104Z,86.66
2017-07-30T22:43:26.946Z,87.31
2017-07-30T22:45:54.806Z,88.09
2017-07-30T22:48:22.633Z,88.54
2017-07-30T22:50:50.444Z,88.48
2017-07-30T22:53:18.260Z,89.19
2017-07-30T22:55:46.028Z,89.21
2017-07-30T22:58:13.860Z,89.35
2017-07-30T23:00:41.637Z,89.49
2017-07-30T23:03:09.457Z,89.25
2017-07-30T23:05:37.288Z,89.06
2017-07-30T23:08:05.078Z,88.95
2017-07-30T23:10:32.881Z,88.94
2017-07-30T23:13:00.640Z,88.89
2017-07-30T23:15:28.473Z,89.02
2017-07-30T23:17:56.269Z,89.16
2017-07-30T23:20:24.101Z,89.22
2017-07-30T23:22:51.866Z,89.28
2017-07-30T23:25:19.721Z,89.37
2017-07-30T23:27:47.491Z,89.47
2017-07-30T23:30:15.261Z,89.58
2017-07-30T23:32:43.064Z,89.69
2017-07-30T23:35:10.845Z,89.86
2017-07-30T23:37:38.696Z,89.66
2017-07-30T23:40:06.477Z,89.57
2017-07-30T23:42:34.284Z,89.57
2017-07-30T23:45:02.059Z,89.22
2017-07-30T23:47:29.889Z,89.46
2017-07-30T23:49:57.661Z,89.83
2017-07-30T23:52:25.452Z,90.22
2017-07-30T23:54:53.237Z,90.48
2017-07-30T23:57:21.022Z,90.20
2017-07-30T23:59:48.851Z,90.39
